createdAt,value
2019-03-13T00:00:15.485Z,10.60
2019-03-13T00:02:44.291Z,10.40
2019-03-13T00:05:12.515Z,10.50
2019-03-13T00:07:40.983Z,10.50
2019-03-13T00:10:10.261Z,10.50
2019-03-13T00:12:38.472Z,10.30
2019-03-13T00:15:09.804Z,10.10
2019-03-13T00:17:38.114Z,9.90
2019-03-13T00:20:10.864Z,9.80
2019-03-13T00:22:39.081Z,9.70
2019-03-13T00:25:08.181Z,9.70
2019-03-13T00:27:36.714Z,9.70
2019-03-13T00:30:06.680Z,9.70
2019-03-13T00:32:34.897Z,9.60
2019-03-13T00:35:03.734Z,9.20
2019-03-13T00:37:31.944Z,9.00
2019-03-13T00:40:00.353Z,8.90
2019-03-13T00:42:28.667Z,8.90
2019-03-13T00:44:56.893Z,8.70
2019-03-13T00:47:25.108Z,8.60
2019-03-13T00:49:53.657Z,8.70
2019-03-13T00:52:21.890Z,8.50
2019-03-13T00:54:50.101Z,8.50
2019-03-13T00:57:18.315Z,8.20
2019-03-13T00:59:46.544Z,8.00
2019-03-13T01:02:19.052Z,8.00
2019-03-13T01:05:07.269Z,8.10
2019-03-13T01:07:35.485Z,8.00
2019-03-13T01:10:05.816Z,8.00
2019-03-13T01:12:34.034Z,7.90
2019-03-13T01:15:02.261Z,7.80
2019-03-13T01:17:30.476Z,7.80
2019-03-13T01:19:58.710Z,7.80
2019-03-13T01:22:26.920Z,7.70
2019-03-13T01:24:55.438Z,7.80
2019-03-13T01:27:23.657Z,7.90
2019-03-13T01:29:51.893Z,7.90
2019-03-13T01:32:31.325Z,8.00
2019-03-13T01:35:01.200Z,8.20
2019-03-13T01:37:29.428Z,8.20
2019-03-13T01:39:57.645Z,8.00
2019-03-13T01:42:25.877Z,7.80
2019-03-13T01:44:54.092Z,7.70
2019-03-13T01:47:22.320Z,7.70
2019-03-13T01:49:50.536Z,7.90
2019-03-13T01:52:18.764Z,7.70
2019-03-13T01:54:46.981Z,7.80
2019-03-13T01:57:15.208Z,7.90
2019-03-13T01:59:43.434Z,7.80
2019-03-13T02:02:11.662Z,7.80
2019-03-13T02:04:59.621Z,7.60
2019-03-13T02:07:27.846Z,7.50
2019-03-13T02:09:56.073Z,7.30
2019-03-13T02:12:24.295Z,7.40
2019-03-13T02:14:52.512Z,7.40
2019-03-13T02:17:20.988Z,7.50
2019-03-13T02:19:49.941Z,7.50
2019-03-13T02:22:18.565Z,7.60
2019-03-13T02:24:46.780Z,7.50
2019-03-13T02:27:15.008Z,7.30
2019-03-13T02:29:43.227Z,7.40
2019-03-13T02:32:11.769Z,7.40
2019-03-13T02:34:40.002Z,7.20
2019-03-13T02:37:08.212Z,7.40
2019-03-13T02:39:36.451Z,7.50
2019-03-13T02:42:04.989Z,7.60
2019-03-13T02:44:33.210Z,7.50
2019-03-13T02:47:01.741Z,7.60
2019-03-13T02:49:29.961Z,7.70
2019-03-13T02:51:58.178Z,7.70
2019-03-13T02:54:26.472Z,7.90
2019-03-13T02:56:54.706Z,7.80
2019-03-13T02:59:22.929Z,7.90
2019-03-13T03:01:55.743Z,8.00
2019-03-13T03:04:23.990Z,7.80
2019-03-13T03:06:52.192Z,7.70
2019-03-13T03:09:20.425Z,7.80
2019-03-13T03:11:48.640Z,8.00
2019-03-13T03:14:17.181Z,8.00
2019-03-13T03:16:45.408Z,7.90
2019-03-13T03:19:13.938Z,7.90
2019-03-13T03:21:42.201Z,7.70
2019-03-13T03:24:10.434Z,7.60
2019-03-13T03:26:38.680Z,7.80
2019-03-13T03:29:06.893Z,7.70
2019-03-13T03:31:35.114Z,7.80
2019-03-13T03:34:03.466Z,7.80
2019-03-13T03:36:31.918Z,7.50
2019-03-13T03:39:00.144Z,7.30
2019-03-13T03:41:28.366Z,7.40
2019-03-13T03:43:56.595Z,7.50
2019-03-13T03:46:24.808Z,7.20
2019-03-13T03:48:53.038Z,7.40
2019-03-13T03:51:21.252Z,7.20
2019-03-13T03:53:49.808Z,7.30
2019-03-13T03:56:18.095Z,7.50
2019-03-13T03:58:46.393Z,7.40
2019-03-13T04:01:19.748Z,7.60
2019-03-13T04:03:48.237Z,7.20
2019-03-13T04:06:35.882Z,7.00
2019-03-13T04:09:05.244Z,7.10
2019-03-13T04:11:33.464Z,7.10
2019-03-13T04:14:01.697Z,7.10
2019-03-13T04:16:29.913Z,7.10
2019-03-13T04:18:58.141Z,7.00
2019-03-13T04:21:26.361Z,6.80
2019-03-13T04:23:54.588Z,7.00
2019-03-13T04:26:23.114Z,7.10
2019-03-13T04:28:51.344Z,6.70
2019-03-13T04:31:19.647Z,6.80
2019-03-13T04:33:47.970Z,6.90
2019-03-13T04:36:16.188Z,7.00
2019-03-13T04:38:44.411Z,7.20
2019-03-13T04:41:12.637Z,6.90
2019-03-13T04:43:40.852Z,7.10
2019-03-13T04:46:09.085Z,6.90
2019-03-13T04:48:37.362Z,6.80
2019-03-13T04:51:06.110Z,6.90
2019-03-13T04:53:34.324Z,6.80
2019-03-13T04:56:02.565Z,7.00
2019-03-13T04:58:30.784Z,7.00
2019-03-13T05:00:59.003Z,7.10
2019-03-13T05:03:27.212Z,7.20
2019-03-13T05:05:55.436Z,6.90
2019-03-13T05:08:45.092Z,6.90
2019-03-13T05:11:05.667Z,6.90
2019-03-13T05:13:33.896Z,6.80
2019-03-13T05:16:02.121Z,6.80
2019-03-13T05:18:30.337Z,7.00
2019-03-13T05:20:58.565Z,6.90
2019-03-13T05:23:26.780Z,7.00
2019-03-13T05:25:55.008Z,7.00
2019-03-13T05:28:23.225Z,7.00
2019-03-13T05:30:53.061Z,6.90
2019-03-13T05:33:21.400Z,7.00
2019-03-13T05:35:49.625Z,7.00
2019-03-13T05:38:17.844Z,7.20
2019-03-13T05:40:46.076Z,7.10
2019-03-13T05:43:14.288Z,7.40
2019-03-13T05:45:42.528Z,7.10
2019-03-13T05:48:10.744Z,7.10
2019-03-13T05:50:38.974Z,7.00
2019-03-13T05:53:07.189Z,6.60
2019-03-13T05:55:35.427Z,6.60
2019-03-13T05:58:03.639Z,6.30
2019-03-13T06:00:31.898Z,6.40
2019-03-13T06:03:00.113Z,6.30
2019-03-13T06:05:28.341Z,6.40
2019-03-13T06:07:56.564Z,6.30
2019-03-13T06:10:25.054Z,6.50
2019-03-13T06:12:53.742Z,6.30
2019-03-13T06:15:22.230Z,6.40
2019-03-13T06:17:50.461Z,6.20
2019-03-13T06:20:18.981Z,8.80
2019-03-13T06:22:47.212Z,9.90
2019-03-13T06:25:15.459Z,8.90
2019-03-13T06:27:46.444Z,8.20
2019-03-13T06:30:21.193Z,8.00
2019-03-13T06:32:49.415Z,7.40
2019-03-13T06:35:17.636Z,7.50
2019-03-13T06:37:45.874Z,6.70
2019-03-13T06:40:16.765Z,6.40
2019-03-13T06:42:44.999Z,6.70
2019-03-13T06:45:14.655Z,6.80
2019-03-13T06:47:42.880Z,6.80
2019-03-13T06:50:16.064Z,6.80
2019-03-13T06:52:44.293Z,6.90
2019-03-13T06:55:12.765Z,6.70
2019-03-13T06:57:40.995Z,6.90
2019-03-13T07:00:27.351Z,7.00
2019-03-13T07:03:00.224Z,6.90
2019-03-13T07:05:33.341Z,6.90
2019-03-13T07:08:19.944Z,7.10
2019-03-13T07:10:59.257Z,7.00
2019-03-13T07:13:46.900Z,7.00
2019-03-13T07:16:33.024Z,7.00
2019-03-13T07:19:02.888Z,6.80
2019-03-13T07:21:35.679Z,7.10
2019-03-13T07:24:18.007Z,7.20
2019-03-13T07:26:47.876Z,7.30
2019-03-13T07:29:18.021Z,7.20
2019-03-13T07:31:47.900Z,7.30
2019-03-13T07:34:23.964Z,7.40
2019-03-13T07:37:05.772Z,7.70
2019-03-13T07:39:47.808Z,7.70
2019-03-13T07:42:17.689Z,7.30
2019-03-13T07:44:47.569Z,7.20
2019-03-13T07:47:35.616Z,7.10
2019-03-13T07:50:25.393Z,7.00
2019-03-13T07:53:11.449Z,6.90
2019-03-13T07:55:41.313Z,7.00
2019-03-13T07:58:17.401Z,7.20
2019-03-13T08:00:53.028Z,7.30
2019-03-13T08:03:25.628Z,7.10
2019-03-13T08:06:11.834Z,7.10
2019-03-13T08:08:57.034Z,7.20
2019-03-13T08:11:29.653Z,7.20
2019-03-13T08:14:15.750Z,7.50
2019-03-13T08:16:45.893Z,7.60
2019-03-13T08:19:15.752Z,7.80
2019-03-13T08:22:00.926Z,8.10
2019-03-13T08:24:47.585Z,8.20
2019-03-13T08:27:29.264Z,8.10
2019-03-13T08:29:59.121Z,7.90
2019-03-13T08:32:31.996Z,8.00
2019-03-13T08:35:01.856Z,8.10
2019-03-13T08:37:43.781Z,8.00
2019-03-13T08:40:13.637Z,7.60
2019-03-13T08:42:52.409Z,7.30
2019-03-13T08:45:24.968Z,7.20
2019-03-13T08:48:03.764Z,7.50
2019-03-13T08:50:42.568Z,7.40
2019-03-13T08:53:12.443Z,7.50
2019-03-13T08:55:42.305Z,7.40
2019-03-13T08:58:12.174Z,7.50
2019-03-13T09:01:00.388Z,7.40
2019-03-13T09:03:32.971Z,7.50
2019-03-13T09:06:02.920Z,7.70
2019-03-13T09:08:49.224Z,7.40
2019-03-13T09:11:34.326Z,7.50
2019-03-13T09:14:04.201Z,7.50
2019-03-13T09:16:34.057Z,7.60
2019-03-13T09:19:09.984Z,7.70
2019-03-13T09:21:39.845Z,7.70
2019-03-13T09:24:12.742Z,7.80
2019-03-13T09:26:59.149Z,7.70
2019-03-13T09:29:38.125Z,8.00
2019-03-13T09:32:14.017Z,7.70
2019-03-13T09:34:46.869Z,7.60
2019-03-13T09:37:22.564Z,7.70
2019-03-13T09:40:10.668Z,7.90
2019-03-13T09:42:40.542Z,7.90
2019-03-13T09:45:20.481Z,8.00
2019-03-13T09:47:50.353Z,8.10
2019-03-13T09:50:26.228Z,8.00
2019-03-13T09:52:56.099Z,8.10
2019-03-13T09:55:28.619Z,8.30
2019-03-13T09:57:58.737Z,8.60
2019-03-13T10:00:28.598Z,9.00
2019-03-13T10:02:58.464Z,9.20
2019-03-13T10:05:28.328Z,9.20
2019-03-13T10:07:58.196Z,9.00
2019-03-13T10:10:28.057Z,9.20
2019-03-13T10:12:57.930Z,9.50
2019-03-13T10:15:27.786Z,9.50
2019-03-13T10:17:57.654Z,9.70
2019-03-13T10:20:44.184Z,9.80
2019-03-13T10:23:29.385Z,10.20
2019-03-13T10:26:11.404Z,9.90
2019-03-13T10:28:43.986Z,9.50
2019-03-13T10:31:16.541Z,9.80
2019-03-13T10:33:46.415Z,9.80
2019-03-13T10:36:31.569Z,9.40
2019-03-13T10:39:17.681Z,9.30
2019-03-13T10:41:58.778Z,9.60
2019-03-13T10:44:31.164Z,10.00
2019-03-13T10:47:09.812Z,10.50
2019-03-13T10:49:48.385Z,10.60
2019-03-13T10:52:18.249Z,10.30
2019-03-13T10:54:48.122Z,10.30
2019-03-13T10:57:34.300Z,10.40
2019-03-13T11:00:21.486Z,10.50
2019-03-13T11:02:57.112Z,10.70
2019-03-13T11:05:39.013Z,10.20
2019-03-13T11:08:23.913Z,9.60
2019-03-13T11:10:53.790Z,9.30
2019-03-13T11:13:39.614Z,9.00
2019-03-13T11:16:21.672Z,9.10
2019-03-13T11:19:08.088Z,8.90
2019-03-13T11:21:44.181Z,9.10
2019-03-13T11:24:14.058Z,8.80
2019-03-13T11:27:02.049Z,8.80
2019-03-13T11:29:31.921Z,8.90
2019-03-13T11:32:17.881Z,9.20
2019-03-13T11:34:50.397Z,8.80
2019-03-13T11:37:29.337Z,8.70
2019-03-13T11:39:59.204Z,8.70
2019-03-13T11:42:35.080Z,8.70
2019-03-13T11:45:14.493Z,8.70
2019-03-13T11:47:53.561Z,8.70
2019-03-13T11:50:26.644Z,8.80
2019-03-13T11:52:56.504Z,8.70
2019-03-13T11:55:29.650Z,8.60
2019-03-13T11:58:11.725Z,8.70
2019-03-13T12:00:50.706Z,8.90
2019-03-13T12:03:39.133Z,9.10
2019-03-13T12:06:09.006Z,9.00
2019-03-13T12:08:41.593Z,9.00
2019-03-13T12:11:20.568Z,9.00
2019-03-13T12:14:05.703Z,8.80
2019-03-13T12:16:38.601Z,8.80
2019-03-13T12:19:08.460Z,8.80
2019-03-13T12:21:54.975Z,8.80
2019-03-13T12:24:41.464Z,9.10
2019-03-13T12:27:11.642Z,9.10
2019-03-13T12:29:59.928Z,9.20
2019-03-13T12:32:32.993Z,9.20
2019-03-13T12:35:02.869Z,9.50
2019-03-13T12:37:35.720Z,10.90
2019-03-13T12:40:14.246Z,11.90
2019-03-13T12:42:47.021Z,11.60
2019-03-13T12:45:29.131Z,10.90
2019-03-13T12:48:16.952Z,10.30
2019-03-13T12:50:47.212Z,10.20
2019-03-13T12:53:17.069Z,10.10
2019-03-13T12:55:46.950Z,10.40
2019-03-13T12:58:28.840Z,10.40
2019-03-13T13:01:07.781Z,10.30
2019-03-13T13:03:37.641Z,9.80
2019-03-13T13:06:07.500Z,9.50
2019-03-13T13:08:53.712Z,9.40
2019-03-13T13:11:32.952Z,9.30
2019-03-13T13:14:17.834Z,9.20
2019-03-13T13:16:50.894Z,9.10
2019-03-13T13:19:19.108Z,9.20
2019-03-13T13:21:47.654Z,9.40
2019-03-13T13:24:15.872Z,10.10
2019-03-13T13:26:44.196Z,9.90
2019-03-13T13:29:12.447Z,9.90
2019-03-13T13:31:40.965Z,9.50
2019-03-13T13:34:09.264Z,9.10
2019-03-13T13:36:37.488Z,9.00
2019-03-13T13:39:07.145Z,9.50
2019-03-13T13:41:35.710Z,9.90
2019-03-13T13:44:03.931Z,10.20
2019-03-13T13:46:32.329Z,10.40
2019-03-13T13:49:00.582Z,10.00
2019-03-13T13:51:28.861Z,10.20
2019-03-13T13:53:57.084Z,10.60
2019-03-13T13:56:25.327Z,10.30
2019-03-13T13:58:53.548Z,10.40
2019-03-13T14:01:21.786Z,10.70
2019-03-13T14:03:50.012Z,10.70
2019-03-13T14:06:18.281Z,10.80
2019-03-13T14:08:46.500Z,10.90
2019-03-13T14:11:14.732Z,11.00
2019-03-13T14:13:42.963Z,10.90
2019-03-13T14:16:11.181Z,10.60
2019-03-13T14:18:39.417Z,10.50
2019-03-13T14:21:07.929Z,10.50
2019-03-13T14:23:36.156Z,10.20
2019-03-13T14:26:04.444Z,10.00
2019-03-13T14:28:32.800Z,9.80
2019-03-13T14:31:01.349Z,9.70
2019-03-13T14:33:29.576Z,10.10
2019-03-13T14:35:57.808Z,9.80
2019-03-13T14:38:26.028Z,9.80
2019-03-13T14:40:54.249Z,9.90
2019-03-13T14:43:22.488Z,10.20
2019-03-13T14:45:50.701Z,10.40
2019-03-13T14:48:18.929Z,10.20
2019-03-13T14:51:06.581Z,10.50
2019-03-13T14:53:34.820Z,10.50
2019-03-13T14:56:03.109Z,10.60
2019-03-13T14:58:31.340Z,10.50
2019-03-13T15:00:59.560Z,10.30
2019-03-13T15:03:27.797Z,10.20
2019-03-13T15:05:56.017Z,10.40
2019-03-13T15:08:24.920Z,10.40
2019-03-13T15:10:53.505Z,10.20
2019-03-13T15:13:21.735Z,10.20
2019-03-13T15:15:49.952Z,10.10
2019-03-13T15:18:18.184Z,9.90
2019-03-13T15:20:46.405Z,10.00
2019-03-13T15:23:14.636Z,9.80
2019-03-13T15:25:42.856Z,9.80
2019-03-13T15:28:11.161Z,9.80
2019-03-13T15:30:39.400Z,9.80
2019-03-13T15:33:07.628Z,9.70
2019-03-13T15:35:35.844Z,9.80
2019-03-13T15:38:04.382Z,10.00
2019-03-13T15:40:32.644Z,9.90
2019-03-13T15:43:20.313Z,10.00
2019-03-13T15:45:48.532Z,9.90
2019-03-13T15:48:16.789Z,9.80
2019-03-13T15:50:46.645Z,9.80
2019-03-13T15:53:14.880Z,9.80
2019-03-13T15:55:43.098Z,9.60
2019-03-13T15:58:11.372Z,9.40
2019-03-13T16:00:39.596Z,9.40
2019-03-13T16:03:07.833Z,9.50
2019-03-13T16:05:36.437Z,9.90
2019-03-13T16:08:04.682Z,9.50
2019-03-13T16:10:32.893Z,9.20
2019-03-13T16:13:02.765Z,9.20
2019-03-13T16:15:41.072Z,9.30
2019-03-13T16:18:09.351Z,9.10
2019-03-13T16:20:37.599Z,9.10
2019-03-13T16:23:05.829Z,9.10
2019-03-13T16:25:34.045Z,9.10
2019-03-13T16:28:02.272Z,8.80
2019-03-13T16:30:32.461Z,8.90
2019-03-13T16:33:00.683Z,8.80
2019-03-13T16:35:28.908Z,8.90
2019-03-13T16:37:57.208Z,9.10
2019-03-13T16:40:25.441Z,9.20
2019-03-13T16:42:53.769Z,9.20
2019-03-13T16:45:22.433Z,9.10
2019-03-13T16:47:50.653Z,9.20
2019-03-13T16:50:24.044Z,9.00
2019-03-13T16:52:52.256Z,8.90
2019-03-13T16:55:21.031Z,8.80
2019-03-13T16:57:49.544Z,9.00
2019-03-13T17:00:25.360Z,9.00
2019-03-13T17:02:53.594Z,9.00
2019-03-13T17:05:21.825Z,8.70
2019-03-13T17:07:50.369Z,8.60
2019-03-13T17:10:20.593Z,8.70
2019-03-13T17:12:48.813Z,8.90
2019-03-13T17:15:22.143Z,8.70
2019-03-13T17:17:50.729Z,8.80
2019-03-13T17:20:26.145Z,9.00
2019-03-13T17:22:54.243Z,8.70
2019-03-13T17:25:22.505Z,8.80
2019-03-13T17:27:50.776Z,8.60
2019-03-13T17:30:21.829Z,8.60
2019-03-13T17:32:49.368Z,8.70
2019-03-13T17:35:17.685Z,8.50
2019-03-13T17:37:46.253Z,8.30
2019-03-13T17:40:16.440Z,8.30
2019-03-13T17:42:44.660Z,8.50
2019-03-13T17:45:15.497Z,8.70
2019-03-13T17:47:43.732Z,8.60
2019-03-13T17:50:14.935Z,8.20
2019-03-13T17:52:43.202Z,8.20
2019-03-13T17:55:13.092Z,8.10
2019-03-13T17:57:41.313Z,8.10
2019-03-13T18:00:15.281Z,7.90
2019-03-13T18:02:43.501Z,8.10
2019-03-13T18:05:12.829Z,8.00
2019-03-13T18:07:41.048Z,8.30
2019-03-13T18:10:19.529Z,8.20
2019-03-13T18:12:47.838Z,8.40
2019-03-13T18:15:17.213Z,8.30
2019-03-13T18:17:45.438Z,8.20
2019-03-13T18:20:19.043Z,8.30
2019-03-13T18:22:47.296Z,8.40
2019-03-13T18:25:18.178Z,8.50
2019-03-13T18:27:45.698Z,8.40
2019-03-13T18:30:22.442Z,8.40
2019-03-13T18:32:50.662Z,8.40
2019-03-13T18:35:19.645Z,8.50
2019-03-13T18:37:47.877Z,8.40
2019-03-13T18:40:21.460Z,8.50
2019-03-13T18:42:49.692Z,8.40
2019-03-13T18:45:22.619Z,8.40
2019-03-13T18:47:51.143Z,8.40
2019-03-13T18:50:19.778Z,8.10
2019-03-13T18:52:47.997Z,8.00
2019-03-13T18:55:30.461Z,8.00
2019-03-13T18:57:58.848Z,8.00
2019-03-13T19:00:31.641Z,7.80
2019-03-13T19:02:59.862Z,7.70
2019-03-13T19:05:29.666Z,7.70
2019-03-13T19:07:57.941Z,7.30
2019-03-13T19:10:28.405Z,7.20
2019-03-13T19:12:56.848Z,7.20
2019-03-13T19:15:25.410Z,7.30
2019-03-13T19:17:53.625Z,7.20
2019-03-13T19:20:24.083Z,7.30
2019-03-13T19:22:52.468Z,7.30
2019-03-13T19:25:20.732Z,7.30
2019-03-13T19:27:48.958Z,7.30
2019-03-13T19:30:22.037Z,7.20
2019-03-13T19:32:50.273Z,7.30
2019-03-13T19:35:18.901Z,7.20
2019-03-13T19:37:47.121Z,7.10
2019-03-13T19:40:17.216Z,7.20
2019-03-13T19:42:45.491Z,7.20
2019-03-13T19:45:16.829Z,7.50
2019-03-13T19:48:32.621Z,7.70
2019-03-13T19:51:01.402Z,7.60
2019-03-13T19:53:29.647Z,7.60
2019-03-13T19:56:01.916Z,7.70
2019-03-13T19:58:30.493Z,7.60
2019-03-13T20:00:58.844Z,7.20
2019-03-13T20:03:27.097Z,7.10
2019-03-13T20:05:55.341Z,7.00
2019-03-13T20:08:23.573Z,7.00
2019-03-13T20:10:51.852Z,7.00
2019-03-13T20:13:20.067Z,7.00
2019-03-13T20:15:48.316Z,7.00
2019-03-13T20:18:16.606Z,6.80
2019-03-13T20:20:45.000Z,7.10
2019-03-13T20:23:14.757Z,6.70
2019-03-13T20:25:42.988Z,6.90
2019-03-13T20:28:11.207Z,6.80
2019-03-13T20:30:39.441Z,6.70
2019-03-13T20:33:07.656Z,6.70
2019-03-13T20:35:37.071Z,6.70
2019-03-13T20:38:05.660Z,6.70
2019-03-13T20:40:36.085Z,6.70
2019-03-13T20:43:23.933Z,6.60
2019-03-13T20:45:52.179Z,6.60
2019-03-13T20:48:22.266Z,6.50
2019-03-13T20:50:50.564Z,6.40
2019-03-13T20:53:20.842Z,6.50
2019-03-13T20:55:49.117Z,6.40
2019-03-13T20:58:17.400Z,6.60
2019-03-13T21:00:45.616Z,6.50
2019-03-13T21:03:13.853Z,6.60
2019-03-13T21:05:42.067Z,6.30
2019-03-13T21:08:10.831Z,6.40
2019-03-13T21:10:58.481Z,6.50
2019-03-13T21:13:26.705Z,6.50
2019-03-13T21:15:54.991Z,6.50
2019-03-13T21:18:23.208Z,6.30
2019-03-13T21:20:51.568Z,6.40
2019-03-13T21:23:19.941Z,6.40
2019-03-13T21:25:48.233Z,6.30
2019-03-13T21:28:16.550Z,6.40
2019-03-13T21:30:44.765Z,6.40
2019-03-13T21:33:12.995Z,6.40
2019-03-13T21:35:41.496Z,6.50
2019-03-13T21:38:12.910Z,6.30
2019-03-13T21:40:40.089Z,6.30
2019-03-13T21:43:08.478Z,6.60
2019-03-13T21:45:41.549Z,6.20
2019-03-13T21:48:07.089Z,6.30
2019-03-13T21:50:35.346Z,6.10
2019-03-13T21:53:03.580Z,6.40
2019-03-13T21:55:31.834Z,6.30
2019-03-13T21:58:00.082Z,6.40
2019-03-13T22:00:28.387Z,6.40
2019-03-13T22:02:56.641Z,6.30
2019-03-13T22:05:26.570Z,6.50
2019-03-13T22:07:54.880Z,6.30
2019-03-13T22:10:23.131Z,6.50
2019-03-13T22:12:51.435Z,6.50
2019-03-13T22:15:23.497Z,6.70
2019-03-13T22:17:51.813Z,6.70
2019-03-13T22:20:20.126Z,6.60
2019-03-13T22:22:48.386Z,6.60
2019-03-13T22:25:17.865Z,6.60
2019-03-13T22:27:46.131Z,6.60
2019-03-13T22:30:20.167Z,6.60
2019-03-13T22:32:48.432Z,6.30
2019-03-13T22:35:16.693Z,6.40
2019-03-13T22:37:44.973Z,6.30
2019-03-13T22:40:14.220Z,6.10
2019-03-13T22:42:42.452Z,5.90
2019-03-13T22:45:12.816Z,6.00
2019-03-13T22:47:42.906Z,7.60
2019-03-13T22:50:19.198Z,9.20
2019-03-13T22:52:47.463Z,10.30
2019-03-13T22:55:16.593Z,9.40
2019-03-13T22:57:44.845Z,8.30
2019-03-13T23:00:54.037Z,7.70
2019-03-13T23:03:26.566Z,7.30
2019-03-13T23:05:54.864Z,7.00
2019-03-13T23:08:23.467Z,6.80
2019-03-13T23:10:51.755Z,6.50
2019-03-13T23:13:20.077Z,6.10
2019-03-13T23:15:48.335Z,6.10
2019-03-13T23:18:18.322Z,6.30
2019-03-13T23:20:46.530Z,6.40
2019-03-13T23:23:14.964Z,6.30
2019-03-13T23:25:43.199Z,6.00
2019-03-13T23:28:11.442Z,5.80
2019-03-13T23:30:39.940Z,6.00
2019-03-13T23:33:08.183Z,5.80
2019-03-13T23:35:36.704Z,6.00
2019-03-13T23:38:04.977Z,5.90
2019-03-13T23:40:33.312Z,5.90
2019-03-13T23:43:01.950Z,6.00
2019-03-13T23:45:30.205Z,6.00
2019-03-13T23:47:59.107Z,6.10
2019-03-13T23:50:27.321Z,6.20
2019-03-13T23:52:55.540Z,6.00
2019-03-13T23:55:23.769Z,6.10
2019-03-13T23:57:52.013Z,6.00
